createdAt,value
2022-09-07T00:01:25.812Z,0.85
2022-09-07T00:03:57.438Z,1.20
2022-09-07T00:06:24.628Z,0.90
2022-09-07T00:08:51.299Z,0.73
2022-09-07T00:11:21.025Z,0.68
2022-09-07T00:18:55.449Z,0.90
2022-09-07T00:21:22.041Z,0.88
2022-09-07T00:23:49.903Z,1.13
2022-09-07T00:26:20.418Z,1.40
2022-09-07T00:28:47.807Z,0.80
2022-09-07T00:31:17.667Z,1.00
2022-09-07T00:33:44.788Z,0.98
2022-09-07T00:36:11.701Z,0.85
2022-09-07T00:38:38.604Z,0.60
2022-09-07T00:41:05.905Z,0.80
2022-09-07T00:43:39.011Z,1.00
2022-09-07T00:46:10.730Z,0.82
2022-09-07T00:48:45.178Z,0.60
2022-09-07T00:51:18.500Z,0.90
2022-09-07T00:53:53.809Z,0.88
2022-09-07T00:56:24.046Z,1.15
2022-09-07T00:58:51.654Z,1.63
2022-09-07T01:01:18.649Z,0.98
2022-09-07T01:03:48.925Z,1.05
2022-09-07T01:06:26.815Z,1.08
2022-09-07T01:08:56.528Z,0.65
2022-09-07T01:11:23.883Z,1.13
2022-09-07T01:13:51.874Z,1.33
2022-09-07T01:16:49.488Z,1.95
2022-09-07T01:19:55.842Z,0.90
2022-09-07T01:30:56.103Z,2.00
2022-09-07T01:39:04.497Z,1.60
2022-09-07T01:41:42.327Z,1.80
2022-09-07T01:47:02.752Z,1.95
2022-09-07T01:49:52.852Z,2.40
2022-09-07T01:52:44.276Z,2.28
2022-09-07T01:55:19.314Z,2.13
2022-09-07T01:57:53.978Z,2.45
2022-09-07T02:00:26.086Z,2.45
2022-09-07T02:03:00.183Z,2.75
2022-09-07T02:05:34.297Z,2.70
2022-09-07T02:08:08.861Z,2.28
2022-09-07T02:10:40.550Z,3.15
2022-09-07T02:13:16.313Z,3.25
2022-09-07T02:18:33.214Z,1.85
2022-09-07T02:21:02.722Z,1.98
2022-09-07T02:23:35.189Z,1.80
2022-09-07T02:26:07.021Z,1.67
2022-09-07T02:28:35.437Z,2.00
2022-09-07T02:31:02.268Z,2.08
2022-09-07T02:33:29.445Z,1.63
2022-09-07T02:35:56.544Z,2.33
2022-09-07T02:38:24.645Z,1.95
2022-09-07T02:40:54.577Z,2.60
2022-09-07T02:43:23.242Z,2.60
2022-09-07T02:46:23.509Z,2.10
2022-09-07T02:49:03.609Z,2.20
2022-09-07T02:57:37.784Z,1.80
2022-09-07T03:05:23.813Z,2.50
2022-09-07T03:08:14.732Z,2.55
2022-09-07T03:10:41.676Z,2.85
2022-09-07T03:13:08.241Z,2.60
2022-09-07T03:15:34.973Z,2.55
2022-09-07T03:18:01.559Z,3.05
2022-09-07T03:20:28.131Z,3.33
2022-09-07T03:22:54.717Z,3.40
2022-09-07T03:25:22.850Z,2.25
2022-09-07T03:27:49.408Z,3.28
2022-09-07T03:30:16.124Z,3.78
2022-09-07T03:32:42.674Z,4.22
2022-09-07T03:35:09.534Z,3.55
2022-09-07T03:37:37.096Z,3.72
2022-09-07T03:40:06.659Z,3.40
2022-09-07T03:42:33.558Z,3.50
2022-09-07T03:45:00.143Z,3.70
2022-09-07T03:47:26.794Z,3.60
2022-09-07T03:49:53.384Z,3.35
2022-09-07T03:52:19.979Z,4.00
2022-09-07T03:54:46.578Z,3.53
2022-09-07T03:57:13.460Z,3.25
2022-09-07T03:59:40.125Z,4.30
2022-09-07T04:02:06.840Z,2.88
2022-09-07T04:04:33.768Z,3.10
2022-09-07T04:07:00.315Z,3.25
2022-09-07T04:09:26.885Z,3.75
2022-09-07T04:11:53.465Z,3.47
2022-09-07T04:14:20.206Z,3.40
2022-09-07T04:16:47.048Z,2.90
2022-09-07T04:19:14.219Z,2.58
2022-09-07T04:21:40.947Z,2.80
2022-09-07T04:24:07.549Z,2.83
2022-09-07T04:26:36.303Z,3.75
2022-09-07T04:29:03.446Z,2.95
2022-09-07T04:31:30.561Z,1.70
2022-09-07T04:33:57.242Z,2.53
2022-09-07T04:36:25.268Z,3.13
2022-09-07T04:38:56.883Z,3.15
2022-09-07T04:41:23.843Z,3.05
2022-09-07T04:43:54.951Z,3.20
2022-09-07T04:49:00.480Z,3.30
2022-09-07T04:51:29.592Z,2.13
2022-09-07T04:53:58.104Z,1.63
2022-09-07T04:56:24.715Z,2.38
2022-09-07T04:58:51.804Z,2.15
2022-09-07T05:01:21.762Z,2.35
2022-09-07T05:03:48.945Z,1.85
2022-09-07T05:06:17.599Z,1.85
2022-09-07T05:08:47.569Z,2.28
2022-09-07T05:11:15.768Z,2.60
2022-09-07T05:13:42.690Z,2.17
2022-09-07T05:16:13.317Z,2.25
2022-09-07T05:18:39.940Z,2.05
2022-09-07T05:21:16.611Z,2.10
2022-09-07T05:23:43.966Z,2.00
2022-09-07T05:26:12.012Z,2.28
2022-09-07T05:28:39.276Z,2.08
2022-09-07T05:31:17.603Z,2.35
2022-09-07T05:36:35.739Z,1.65
2022-09-07T05:39:02.472Z,1.60
2022-09-07T05:41:29.100Z,1.02
2022-09-07T05:46:42.831Z,1.45
2022-09-07T05:49:10.020Z,2.05
2022-09-07T05:51:37.292Z,1.35
2022-09-07T05:54:04.321Z,1.92
2022-09-07T05:56:34.632Z,2.13
2022-09-07T05:59:01.199Z,1.77
2022-09-07T06:01:28.165Z,2.30
2022-09-07T06:03:54.754Z,1.83
2022-09-07T06:06:21.666Z,1.42
2022-09-07T06:08:51.077Z,1.65
2022-09-07T06:11:20.305Z,1.65
2022-09-07T06:13:47.257Z,1.80
2022-09-07T06:16:15.193Z,2.13
2022-09-07T06:18:44.352Z,1.40
2022-09-07T06:21:15.381Z,1.65
2022-09-07T06:23:43.562Z,1.80
2022-09-07T06:26:11.067Z,1.40
2022-09-07T06:28:40.696Z,1.83
2022-09-07T06:31:10.338Z,1.77
2022-09-07T06:33:37.109Z,1.30
2022-09-07T06:36:05.811Z,1.25
2022-09-07T06:38:34.672Z,1.40
2022-09-07T06:43:51.539Z,1.40
2022-09-07T06:49:04.921Z,1.48
2022-09-07T06:51:32.251Z,1.30
2022-09-07T06:56:48.437Z,1.70
2022-09-07T06:59:15.051Z,1.02
2022-09-07T07:01:41.602Z,1.30
2022-09-07T07:04:08.209Z,1.38
2022-09-07T07:06:36.467Z,1.08
2022-09-07T07:09:05.335Z,1.40
2022-09-07T07:11:31.953Z,2.47
2022-09-07T07:13:58.655Z,1.42
2022-09-07T07:16:25.440Z,1.13
2022-09-07T07:18:55.967Z,1.10
2022-09-07T07:21:23.228Z,1.02
2022-09-07T07:23:51.724Z,1.75
2022-09-07T07:26:20.975Z,1.73
2022-09-07T07:29:05.509Z,0.80
2022-09-07T07:31:33.743Z,1.45
2022-09-07T07:34:00.415Z,1.35
2022-09-07T07:36:28.240Z,1.05
2022-09-07T07:44:13.982Z,1.25
2022-09-07T07:46:40.643Z,1.63
2022-09-07T07:49:07.472Z,1.73
2022-09-07T07:52:49.959Z,1.40
2022-09-07T07:54:20.684Z,1.27
2022-09-07T07:56:47.344Z,1.73
2022-09-07T07:59:15.930Z,2.60
2022-09-07T08:01:43.913Z,1.38
2022-09-07T08:04:10.546Z,1.30
2022-09-07T08:06:37.825Z,1.20
2022-09-07T08:09:04.341Z,1.52
2022-09-07T08:11:31.659Z,1.15
2022-09-07T08:14:00.332Z,1.33
2022-09-07T08:16:26.984Z,1.02
2022-09-07T08:18:53.785Z,1.20
2022-09-07T08:21:20.405Z,2.17
2022-09-07T08:23:46.973Z,1.65
2022-09-07T08:26:13.528Z,0.98
2022-09-07T08:28:41.963Z,1.92
2022-09-07T08:31:11.991Z,2.10
2022-09-07T08:33:39.362Z,2.22
2022-09-07T08:36:08.327Z,1.25
2022-09-07T08:38:36.316Z,1.13
2022-09-07T08:41:21.352Z,1.30
2022-09-07T08:49:18.860Z,2.40
2022-09-07T08:54:22.549Z,1.20
2022-09-07T09:02:38.467Z,1.63
2022-09-07T09:05:21.231Z,1.33
2022-09-07T09:07:59.384Z,0.85
2022-09-07T09:10:36.594Z,1.23
2022-09-07T09:21:19.587Z,1.73
2022-09-07T09:23:48.914Z,2.08
2022-09-07T09:28:51.313Z,1.70
2022-09-07T09:31:36.107Z,1.65
2022-09-07T09:36:43.927Z,1.48
2022-09-07T09:39:32.000Z,0.98
2022-09-07T09:42:14.377Z,1.20
2022-09-07T09:47:30.704Z,1.13
2022-09-07T09:50:01.368Z,0.73
2022-09-07T09:52:34.768Z,0.90
2022-09-07T09:55:32.723Z,1.00
2022-09-07T10:04:00.482Z,2.17
2022-09-07T10:06:29.371Z,1.15
2022-09-07T10:08:58.662Z,0.75
2022-09-07T10:14:42.232Z,0.93
2022-09-07T10:17:27.523Z,0.60
2022-09-07T10:19:59.438Z,0.73
2022-09-07T10:22:47.521Z,1.00
2022-09-07T10:31:27.678Z,2.42
2022-09-07T10:55:30.489Z,1.90
2022-09-07T11:00:50.984Z,1.80
2022-09-07T11:14:12.899Z,0.82
2022-09-07T11:16:50.972Z,1.30
2022-09-07T11:19:36.962Z,0.90
2022-09-07T11:27:41.720Z,0.90
2022-09-07T11:32:55.779Z,0.68
2022-09-07T11:35:52.288Z,0.73
2022-09-07T11:41:10.761Z,0.95
2022-09-07T11:44:01.715Z,1.02
2022-09-07T11:49:12.265Z,1.73
2022-09-07T11:51:46.607Z,2.17
2022-09-07T11:54:36.765Z,1.02
2022-09-07T13:31:14.033Z,2.13
2022-09-07T13:36:39.026Z,0.75
2022-09-07T13:39:09.622Z,0.57
2022-09-07T13:41:42.953Z,0.45
2022-09-07T13:44:23.687Z,0.45
2022-09-07T13:52:15.787Z,0.45
2022-09-07T13:54:58.645Z,0.30
2022-09-07T14:10:48.691Z,0.50
2022-09-07T14:13:15.286Z,0.55
2022-09-07T14:15:44.750Z,0.45
2022-09-07T14:18:29.047Z,0.40
2022-09-07T14:20:56.402Z,0.40
2022-09-07T14:23:29.850Z,0.80
2022-09-07T14:26:18.242Z,0.57
2022-09-07T14:31:16.332Z,0.75
2022-09-07T14:33:50.271Z,0.30
2022-09-07T14:36:41.647Z,0.70
2022-09-07T14:39:06.910Z,0.57
2022-09-07T14:41:38.448Z,0.70
2022-09-07T14:44:05.087Z,0.98
2022-09-07T14:46:34.299Z,0.43
2022-09-07T14:49:04.984Z,0.60
2022-09-07T14:51:36.484Z,0.73
2022-09-07T14:54:07.377Z,1.08
2022-09-07T14:56:37.275Z,0.40
2022-09-07T14:59:43.668Z,0.43
2022-09-07T15:04:47.519Z,1.75
2022-09-07T15:07:45.736Z,0.98
2022-09-07T15:10:14.142Z,1.02
2022-09-07T15:12:44.044Z,1.73
2022-09-07T15:15:25.105Z,2.17
2022-09-07T15:17:54.554Z,1.63
2022-09-07T15:20:43.249Z,1.77
2022-09-07T15:23:15.952Z,2.25
2022-09-07T15:25:49.643Z,2.10
2022-09-07T15:34:11.365Z,2.10
2022-09-07T15:36:40.595Z,1.55
2022-09-07T15:39:08.175Z,1.45
2022-09-07T15:41:34.829Z,1.25
2022-09-07T15:44:01.529Z,1.77
2022-09-07T15:46:28.066Z,3.08
2022-09-07T15:48:56.015Z,1.38
2022-09-07T15:54:13.252Z,1.58
2022-09-07T15:56:41.463Z,2.42
2022-09-07T15:59:11.182Z,1.83
2022-09-07T16:01:55.286Z,1.50
2022-09-07T16:04:24.103Z,2.10
2022-09-07T16:06:50.823Z,2.00
2022-09-07T16:09:17.862Z,1.80
2022-09-07T16:11:50.034Z,1.85
2022-09-07T16:14:17.672Z,1.52
2022-09-07T16:19:34.633Z,2.72
2022-09-07T16:22:01.910Z,1.80
2022-09-07T16:24:28.637Z,2.58
2022-09-07T16:26:55.507Z,1.83
2022-09-07T16:29:22.063Z,1.60
2022-09-07T16:34:35.329Z,1.92
2022-09-07T16:37:02.001Z,2.20
2022-09-07T16:39:29.231Z,1.88
2022-09-07T16:41:55.987Z,1.85
2022-09-07T16:44:22.637Z,1.58
2022-09-07T16:46:50.447Z,1.85
2022-09-07T16:49:17.745Z,2.40
2022-09-07T16:51:45.790Z,1.73
2022-09-07T16:54:13.697Z,1.98
2022-09-07T16:56:40.220Z,1.88
2022-09-07T16:59:09.686Z,1.83
2022-09-07T17:04:10.425Z,1.83
2022-09-07T17:06:37.406Z,1.80
2022-09-07T17:09:04.543Z,1.45
2022-09-07T17:11:34.148Z,1.45
2022-09-07T17:14:01.257Z,1.65
2022-09-07T17:21:53.690Z,0.50
2022-09-07T17:24:20.688Z,0.50
2022-09-07T17:26:47.257Z,0.65
2022-09-07T17:29:13.811Z,0.40
2022-09-07T17:34:28.381Z,0.60
2022-09-07T17:36:55.723Z,0.68
2022-09-07T17:39:22.255Z,0.60
2022-09-07T17:41:52.718Z,1.08
2022-09-07T17:44:19.432Z,0.80
2022-09-07T17:46:46.000Z,0.70
2022-09-07T17:49:14.533Z,1.38
2022-09-07T17:51:41.399Z,0.80
2022-09-07T17:54:11.987Z,0.50
2022-09-07T17:56:40.134Z,0.47
2022-09-07T18:01:54.286Z,0.95
2022-09-07T18:04:21.644Z,0.80
2022-09-07T18:06:48.420Z,0.82
2022-09-07T18:09:15.040Z,0.85
2022-09-07T18:11:45.512Z,0.73
2022-09-07T18:14:14.462Z,0.85
2022-09-07T18:16:41.827Z,0.70
2022-09-07T18:19:08.713Z,0.65
2022-09-07T18:21:37.831Z,0.43
2022-09-07T18:24:08.251Z,0.70
2022-09-07T18:26:39.058Z,0.70
2022-09-07T18:29:18.793Z,0.60
2022-09-07T18:31:53.684Z,0.50
2022-09-07T18:34:20.672Z,0.88
2022-09-07T18:36:47.427Z,0.73
2022-09-07T18:39:14.064Z,0.50
2022-09-07T18:41:40.867Z,0.73
2022-09-07T18:45:27.019Z,1.30
2022-09-07T18:46:54.638Z,0.65
2022-09-07T18:49:21.157Z,0.90
2022-09-07T18:54:34.269Z,0.73
2022-09-07T18:57:00.791Z,1.05
2022-09-07T18:59:27.362Z,0.70
2022-09-07T19:01:54.479Z,1.00
2022-09-07T19:04:22.524Z,0.75
2022-09-07T19:06:49.297Z,0.57
2022-09-07T19:09:15.800Z,0.80
2022-09-07T19:11:42.574Z,0.90
2022-09-07T19:14:09.249Z,0.80
2022-09-07T19:16:36.365Z,1.20
2022-09-07T19:19:06.304Z,1.60
2022-09-07T19:21:35.948Z,1.30
2022-09-07T19:26:35.448Z,0.80
2022-09-07T19:29:04.621Z,0.77
2022-09-07T19:31:31.609Z,0.82
2022-09-07T19:34:00.161Z,1.00
2022-09-07T19:36:30.170Z,1.13
2022-09-07T19:38:56.725Z,0.70
2022-09-07T19:41:23.502Z,0.80
2022-09-07T19:43:50.490Z,0.98
2022-09-07T19:46:22.719Z,0.77
2022-09-07T19:48:52.130Z,0.60
2022-09-07T19:51:19.898Z,1.30
2022-09-07T19:53:47.448Z,0.60
2022-09-07T19:56:16.905Z,1.38
2022-09-07T19:58:44.825Z,0.98
2022-09-07T20:01:16.168Z,0.80
2022-09-07T20:03:43.968Z,0.75
2022-09-07T20:06:14.677Z,1.75
2022-09-07T20:08:42.769Z,1.45
2022-09-07T20:11:11.945Z,0.70
2022-09-07T20:13:39.801Z,1.25
2022-09-07T20:16:09.439Z,1.67
2022-09-07T20:21:05.096Z,0.73
2022-09-07T20:23:32.185Z,0.70
2022-09-07T20:26:00.808Z,1.10
2022-09-07T20:28:28.000Z,1.48
2022-09-07T20:30:54.716Z,0.95
2022-09-07T20:33:21.747Z,0.75
2022-09-07T20:35:49.209Z,1.02
2022-09-07T20:38:17.684Z,1.10
2022-09-07T20:40:53.827Z,1.02
2022-09-07T20:45:47.769Z,1.13
2022-09-07T20:48:14.610Z,1.10
2022-09-07T20:50:41.373Z,1.20
2022-09-07T20:53:08.475Z,1.00
2022-09-07T20:55:36.007Z,1.40
2022-09-07T20:58:03.136Z,0.70
2022-09-07T21:00:29.767Z,1.27
2022-09-07T21:02:56.504Z,0.75
2022-09-07T21:05:23.060Z,1.20
2022-09-07T21:07:49.610Z,1.20
2022-09-07T21:10:16.211Z,1.40
2022-09-07T21:12:42.829Z,1.10
2022-09-07T21:15:09.864Z,0.98
2022-09-07T21:17:36.455Z,1.02
2022-09-07T21:20:03.191Z,0.77
2022-09-07T21:22:30.948Z,1.70
2022-09-07T21:24:57.701Z,1.13
2022-09-07T21:27:24.248Z,1.00
2022-09-07T21:29:51.179Z,0.93
2022-09-07T21:32:17.690Z,1.10
2022-09-07T21:34:44.192Z,1.52
2022-09-07T21:37:10.764Z,1.23
2022-09-07T21:39:37.341Z,1.38
2022-09-07T21:42:04.495Z,1.40
2022-09-07T21:44:31.017Z,1.17
2022-09-07T21:46:57.641Z,1.10
2022-09-07T21:49:24.216Z,1.50
2022-09-07T21:51:50.721Z,1.30
2022-09-07T21:54:17.249Z,0.80
2022-09-07T21:56:46.652Z,1.63
2022-09-07T21:59:13.908Z,1.48
2022-09-07T22:01:40.969Z,1.17
2022-09-07T22:04:07.628Z,0.90
2022-09-07T22:06:34.624Z,1.52
2022-09-07T22:09:01.918Z,1.48
2022-09-07T22:11:29.800Z,1.58
2022-09-07T22:13:58.870Z,1.45
2022-09-07T22:16:25.485Z,1.25
2022-09-07T22:18:52.567Z,1.08
2022-09-07T22:21:24.008Z,1.50
2022-09-07T22:23:54.364Z,1.70
2022-09-07T22:26:23.855Z,1.10
2022-09-07T22:28:50.921Z,1.65
2022-09-07T22:33:56.815Z,2.08
2022-09-07T22:36:27.956Z,1.92
2022-09-07T22:38:56.390Z,1.30
2022-09-07T22:41:26.404Z,2.15
2022-09-07T22:43:53.101Z,1.88
2022-09-07T22:46:21.270Z,1.25
2022-09-07T22:48:48.772Z,2.25
2022-09-07T22:51:16.236Z,1.80
2022-09-07T22:53:43.574Z,2.72
2022-09-07T22:56:16.749Z,2.25
2022-09-07T22:58:48.287Z,1.55
2022-09-07T23:01:15.487Z,2.28
2022-09-07T23:03:43.841Z,2.83
2022-09-07T23:06:50.294Z,2.53
2022-09-07T23:14:30.996Z,1.33
2022-09-07T23:16:57.528Z,1.35
2022-09-07T23:19:24.073Z,1.10
2022-09-07T23:21:50.642Z,1.25
2022-09-07T23:24:18.833Z,1.88
2022-09-07T23:26:46.927Z,1.17
2022-09-07T23:29:14.700Z,1.58
2022-09-07T23:31:41.583Z,1.48
2022-09-07T23:34:08.436Z,1.60
2022-09-07T23:36:35.008Z,1.52
2022-09-07T23:39:01.715Z,1.33
2022-09-07T23:41:28.871Z,1.08
2022-09-07T23:43:55.823Z,1.48
2022-09-07T23:46:23.000Z,1.05
2022-09-07T23:48:50.307Z,1.60
2022-09-07T23:51:22.789Z,1.92
2022-09-07T23:53:51.155Z,1.13
2022-09-07T23:56:17.695Z,1.30
2022-09-07T23:58:44.240Z,1.33
